sensor_id;sensor_type;location;lat;lon;timestamp;temperature;humidity
480;DHT22;226;48.606;9.096;2024-02-15T00:00:06;10.80;47.90
480;DHT22;226;48.606;9.096;2024-02-15T00:02:36;10.70;48.00
480;DHT22;226;48.606;9.096;2024-02-15T00:05:05;10.60;48.60
480;DHT22;226;48.606;9.096;2024-02-15T00:07:34;10.60;47.90
480;DHT22;226;48.606;9.096;2024-02-15T00:10:03;10.70;48.40
480;DHT22;226;48.606;9.096;2024-02-15T00:12:31;10.70;48.10
480;DHT22;226;48.606;9.096;2024-02-15T00:15:00;10.70;47.70
480;DHT22;226;48.606;9.096;2024-02-15T00:17:28;10.70;47.10
480;DHT22;226;48.606;9.096;2024-02-15T00:19:58;10.70;46.70
480;DHT22;226;48.606;9.096;2024-02-15T00:22:27;10.70;46.90
480;DHT22;226;48.606;9.096;2024-02-15T00:24:56;10.70;47.80
480;DHT22;226;48.606;9.096;2024-02-15T00:27:25;10.90;47.60
480;DHT22;226;48.606;9.096;2024-02-15T00:29:53;10.80;51.60
480;DHT22;226;48.606;9.096;2024-02-15T00:32:22;10.80;50.30
480;DHT22;226;48.606;9.096;2024-02-15T00:34:50;10.80;49.00
480;DHT22;226;48.606;9.096;2024-02-15T00:37:20;10.90;48.60
480;DHT22;226;48.606;9.096;2024-02-15T00:39:48;10.80;48.50
480;DHT22;226;48.606;9.096;2024-02-15T00:42:16;10.80;48.80
480;DHT22;226;48.606;9.096;2024-02-15T00:44:45;10.80;48.60
480;DHT22;226;48.606;9.096;2024-02-15T00:47:13;10.80;56.90
480;DHT22;226;48.606;9.096;2024-02-15T00:49:42;10.70;56.20
480;DHT22;226;48.606;9.096;2024-02-15T00:52:11;10.70;53.60
480;DHT22;226;48.606;9.096;2024-02-15T00:54:41;10.80;50.60
480;DHT22;226;48.606;9.096;2024-02-15T00:57:09;10.80;50.00
480;DHT22;226;48.606;9.096;2024-02-15T00:59:38;10.80;49.30
480;DHT22;226;48.606;9.096;2024-02-15T01:02:06;10.80;48.40
480;DHT22;226;48.606;9.096;2024-02-15T01:04:34;10.70;48.00
480;DHT22;226;48.606;9.096;2024-02-15T01:07:03;10.60;48.10
480;DHT22;226;48.606;9.096;2024-02-15T01:09:31;10.70;47.90
480;DHT22;226;48.606;9.096;2024-02-15T01:12:01;10.60;48.20
480;DHT22;226;48.606;9.096;2024-02-15T01:14:30;10.60;47.90
480;DHT22;226;48.606;9.096;2024-02-15T01:16:58;10.50;48.10
480;DHT22;226;48.606;9.096;2024-02-15T01:19:27;10.40;48.80
480;DHT22;226;48.606;9.096;2024-02-15T01:21:55;10.40;49.30
480;DHT22;226;48.606;9.096;2024-02-15T01:24:26;10.40;48.60
480;DHT22;226;48.606;9.096;2024-02-15T01:26:54;10.30;48.80
480;DHT22;226;48.606;9.096;2024-02-15T01:29:24;10.30;48.40
480;DHT22;226;48.606;9.096;2024-02-15T01:31:53;10.20;48.40
480;DHT22;226;48.606;9.096;2024-02-15T01:34:21;10.10;49.30
480;DHT22;226;48.606;9.096;2024-02-15T01:36:48;10.10;49.40
480;DHT22;226;48.606;9.096;2024-02-15T01:39:17;10.00;50.40
480;DHT22;226;48.606;9.096;2024-02-15T01:41:48;10.00;50.90
480;DHT22;226;48.606;9.096;2024-02-15T01:44:18;10.10;50.20
480;DHT22;226;48.606;9.096;2024-02-15T01:46:49;10.10;51.30
480;DHT22;226;48.606;9.096;2024-02-15T01:49:19;10.10;51.60
480;DHT22;226;48.606;9.096;2024-02-15T01:51:49;9.90;51.60
480;DHT22;226;48.606;9.096;2024-02-15T01:54:19;9.80;53.30
480;DHT22;226;48.606;9.096;2024-02-15T01:56:48;9.70;53.50
480;DHT22;226;48.606;9.096;2024-02-15T01:59:16;9.60;54.70
480;DHT22;226;48.606;9.096;2024-02-15T02:01:44;9.50;54.00
480;DHT22;226;48.606;9.096;2024-02-15T02:04:15;9.40;55.00
480;DHT22;226;48.606;9.096;2024-02-15T02:06:43;9.30;56.20
480;DHT22;226;48.606;9.096;2024-02-15T02:09:11;9.40;59.20
480;DHT22;226;48.606;9.096;2024-02-15T02:11:41;9.20;55.90
480;DHT22;226;48.606;9.096;2024-02-15T02:14:10;9.10;56.50
480;DHT22;226;48.606;9.096;2024-02-15T02:16:38;9.00;57.60
480;DHT22;226;48.606;9.096;2024-02-15T02:19:06;8.90;57.40
480;DHT22;226;48.606;9.096;2024-02-15T02:21:38;8.90;58.30
480;DHT22;226;48.606;9.096;2024-02-15T02:24:12;9.00;57.80
480;DHT22;226;48.606;9.096;2024-02-15T02:26:42;8.80;58.70
480;DHT22;226;48.606;9.096;2024-02-15T02:29:11;8.60;59.90
480;DHT22;226;48.606;9.096;2024-02-15T02:31:40;8.40;61.20
480;DHT22;226;48.606;9.096;2024-02-15T02:34:09;8.30;62.70
480;DHT22;226;48.606;9.096;2024-02-15T02:36:38;8.20;63.30
480;DHT22;226;48.606;9.096;2024-02-15T02:39:07;8.20;63.30
480;DHT22;226;48.606;9.096;2024-02-15T02:41:35;8.30;63.90
480;DHT22;226;48.606;9.096;2024-02-15T02:44:05;8.30;65.10
480;DHT22;226;48.606;9.096;2024-02-15T02:46:33;8.20;66.30
480;DHT22;226;48.606;9.096;2024-02-15T02:49:02;8.00;67.20
480;DHT22;226;48.606;9.096;2024-02-15T02:51:30;7.80;69.50
480;DHT22;226;48.606;9.096;2024-02-15T02:53:58;7.70;69.70
480;DHT22;226;48.606;9.096;2024-02-15T02:56:28;7.70;78.50
480;DHT22;226;48.606;9.096;2024-02-15T02:58:56;7.70;80.70
480;DHT22;226;48.606;9.096;2024-02-15T03:01:27;7.80;78.40
480;DHT22;226;48.606;9.096;2024-02-15T03:03:56;7.80;79.60
480;DHT22;226;48.606;9.096;2024-02-15T03:06:24;7.60;79.40
480;DHT22;226;48.606;9.096;2024-02-15T03:08:52;7.40;79.20
480;DHT22;226;48.606;9.096;2024-02-15T03:11:21;7.40;77.30
480;DHT22;226;48.606;9.096;2024-02-15T03:13:49;7.40;77.40
480;DHT22;226;48.606;9.096;2024-02-15T03:16:17;7.40;78.50
480;DHT22;226;48.606;9.096;2024-02-15T03:18:51;7.30;77.30
480;DHT22;226;48.606;9.096;2024-02-15T03:21:19;7.50;76.60
480;DHT22;226;48.606;9.096;2024-02-15T03:23:48;7.30;76.10
480;DHT22;226;48.606;9.096;2024-02-15T03:26:19;7.30;73.50
480;DHT22;226;48.606;9.096;2024-02-15T03:28:50;7.30;76.10
480;DHT22;226;48.606;9.096;2024-02-15T03:31:19;7.20;72.60
480;DHT22;226;48.606;9.096;2024-02-15T03:33:47;6.90;73.60
480;DHT22;226;48.606;9.096;2024-02-15T03:36:18;6.90;78.80
480;DHT22;226;48.606;9.096;2024-02-15T03:38:46;7.10;78.10
480;DHT22;226;48.606;9.096;2024-02-15T03:41:15;7.00;77.10
480;DHT22;226;48.606;9.096;2024-02-15T03:43:43;7.20;76.30
480;DHT22;226;48.606;9.096;2024-02-15T03:46:11;6.90;76.90
480;DHT22;226;48.606;9.096;2024-02-15T03:48:41;7.00;76.00
480;DHT22;226;48.606;9.096;2024-02-15T03:51:10;6.70;76.80
480;DHT22;226;48.606;9.096;2024-02-15T03:53:40;6.70;77.60
480;DHT22;226;48.606;9.096;2024-02-15T03:56:09;6.80;77.70
480;DHT22;226;48.606;9.096;2024-02-15T03:58:38;6.70;77.00
480;DHT22;226;48.606;9.096;2024-02-15T04:01:06;6.70;69.60
480;DHT22;226;48.606;9.096;2024-02-15T04:03:36;6.80;69.90
480;DHT22;226;48.606;9.096;2024-02-15T04:06:05;7.10;70.60
480;DHT22;226;48.606;9.096;2024-02-15T04:08:33;6.50;71.10
480;DHT22;226;48.606;9.096;2024-02-15T04:11:04;6.70;72.60
480;DHT22;226;48.606;9.096;2024-02-15T04:13:33;6.60;72.20
480;DHT22;226;48.606;9.096;2024-02-15T04:16:01;6.80;73.50
480;DHT22;226;48.606;9.096;2024-02-15T04:18:29;6.70;72.30
480;DHT22;226;48.606;9.096;2024-02-15T04:21:00;6.70;72.60
480;DHT22;226;48.606;9.096;2024-02-15T04:23:29;7.20;73.00
480;DHT22;226;48.606;9.096;2024-02-15T04:25:57;7.00;72.70
480;DHT22;226;48.606;9.096;2024-02-15T04:28:27;7.20;72.90
480;DHT22;226;48.606;9.096;2024-02-15T04:30:56;7.10;71.80
480;DHT22;226;48.606;9.096;2024-02-15T04:33:24;7.10;71.20
480;DHT22;226;48.606;9.096;2024-02-15T04:35:52;7.40;71.50
480;DHT22;226;48.606;9.096;2024-02-15T04:38:20;7.30;70.90
480;DHT22;226;48.606;9.096;2024-02-15T04:40:49;7.20;69.10
480;DHT22;226;48.606;9.096;2024-02-15T04:43:18;7.30;69.00
480;DHT22;226;48.606;9.096;2024-02-15T04:45:47;7.40;69.90
480;DHT22;226;48.606;9.096;2024-02-15T04:48:15;7.40;70.50
480;DHT22;226;48.606;9.096;2024-02-15T04:50:45;7.30;69.00
480;DHT22;226;48.606;9.096;2024-02-15T04:53:14;7.50;69.70
480;DHT22;226;48.606;9.096;2024-02-15T04:55:42;7.40;76.10
480;DHT22;226;48.606;9.096;2024-02-15T04:58:10;7.40;69.80
480;DHT22;226;48.606;9.096;2024-02-15T05:00:39;7.60;71.30
480;DHT22;226;48.606;9.096;2024-02-15T05:03:10;7.30;71.60
480;DHT22;226;48.606;9.096;2024-02-15T05:05:39;7.40;72.10
480;DHT22;226;48.606;9.096;2024-02-15T05:08:07;8.20;72.20
480;DHT22;226;48.606;9.096;2024-02-15T05:10:36;7.40;71.80
480;DHT22;226;48.606;9.096;2024-02-15T05:13:04;7.60;71.40
480;DHT22;226;48.606;9.096;2024-02-15T05:15:32;7.40;70.20
480;DHT22;226;48.606;9.096;2024-02-15T05:18:00;7.40;59.10
480;DHT22;226;48.606;9.096;2024-02-15T05:20:30;7.40;58.10
480;DHT22;226;48.606;9.096;2024-02-15T05:22:58;7.40;57.50
480;DHT22;226;48.606;9.096;2024-02-15T05:25:27;7.50;56.10
480;DHT22;226;48.606;9.096;2024-02-15T05:27:56;7.40;55.20
480;DHT22;226;48.606;9.096;2024-02-15T05:30:25;4.60;54.40
480;DHT22;226;48.606;9.096;2024-02-15T05:32:53;7.30;56.50
480;DHT22;226;48.606;9.096;2024-02-15T05:35:23;7.20;56.00
480;DHT22;226;48.606;9.096;2024-02-15T05:37:55;7.10;56.70
480;DHT22;226;48.606;9.096;2024-02-15T05:40:23;7.10;56.70
480;DHT22;226;48.606;9.096;2024-02-15T05:42:55;7.00;59.60
480;DHT22;226;48.606;9.096;2024-02-15T05:45:30;7.00;59.90
480;DHT22;226;48.606;9.096;2024-02-15T05:48:03;7.00;61.20
480;DHT22;226;48.606;9.096;2024-02-15T05:50:34;7.00;62.50
480;DHT22;226;48.606;9.096;2024-02-15T05:53:04;4.70;60.20
480;DHT22;226;48.606;9.096;2024-02-15T05:55:35;7.10;62.10
480;DHT22;226;48.606;9.096;2024-02-15T05:58:05;7.10;60.00
480;DHT22;226;48.606;9.096;2024-02-15T06:00:35;7.10;61.00
480;DHT22;226;48.606;9.096;2024-02-15T06:03:05;7.10;60.50
480;DHT22;226;48.606;9.096;2024-02-15T06:05:36;7.10;60.10
480;DHT22;226;48.606;9.096;2024-02-15T06:08:06;7.10;60.10
480;DHT22;226;48.606;9.096;2024-02-15T06:10:35;7.10;60.30
480;DHT22;226;48.606;9.096;2024-02-15T06:13:03;7.10;62.10
480;DHT22;226;48.606;9.096;2024-02-15T06:15:31;7.00;61.70
480;DHT22;226;48.606;9.096;2024-02-15T06:18:00;8.50;64.20
480;DHT22;226;48.606;9.096;2024-02-15T06:20:33;7.00;63.50
480;DHT22;226;48.606;9.096;2024-02-15T06:23:02;7.00;64.00
480;DHT22;226;48.606;9.096;2024-02-15T06:25:33;7.00;62.70
480;DHT22;226;48.606;9.096;2024-02-15T06:28:01;7.00;61.50
480;DHT22;226;48.606;9.096;2024-02-15T06:30:40;7.00;62.20
480;DHT22;226;48.606;9.096;2024-02-15T06:33:25;7.00;60.90
480;DHT22;226;48.606;9.096;2024-02-15T06:36:08;6.90;59.50
480;DHT22;226;48.606;9.096;2024-02-15T06:38:53;6.90;59.70
480;DHT22;226;48.606;9.096;2024-02-15T06:41:41;6.90;59.90
480;DHT22;226;48.606;9.096;2024-02-15T06:49:08;6.90;58.50
480;DHT22;226;48.606;9.096;2024-02-15T06:51:37;6.80;58.20
480;DHT22;226;48.606;9.096;2024-02-15T06:54:05;6.80;59.30
480;DHT22;226;48.606;9.096;2024-02-15T06:56:36;6.80;59.80
480;DHT22;226;48.606;9.096;2024-02-15T06:59:08;6.90;61.30
480;DHT22;226;48.606;9.096;2024-02-15T07:01:37;6.90;60.90
480;DHT22;226;48.606;9.096;2024-02-15T07:04:05;7.00;60.00
480;DHT22;226;48.606;9.096;2024-02-15T07:06:33;7.00;58.60
480;DHT22;226;48.606;9.096;2024-02-15T07:09:02;7.00;59.20
480;DHT22;226;48.606;9.096;2024-02-15T07:11:31;7.00;58.60
480;DHT22;226;48.606;9.096;2024-02-15T07:14:00;7.00;59.30
480;DHT22;226;48.606;9.096;2024-02-15T07:16:29;7.00;59.80
480;DHT22;226;48.606;9.096;2024-02-15T07:18:57;7.10;60.70
480;DHT22;226;48.606;9.096;2024-02-15T07:21:26;7.10;60.90
480;DHT22;226;48.606;9.096;2024-02-15T07:23:56;7.20;62.20
480;DHT22;226;48.606;9.096;2024-02-15T07:26:25;7.30;61.30
480;DHT22;226;48.606;9.096;2024-02-15T07:28:53;7.40;60.00
480;DHT22;226;48.606;9.096;2024-02-15T07:31:23;7.60;60.10
480;DHT22;226;48.606;9.096;2024-02-15T07:33:53;7.60;59.80
480;DHT22;226;48.606;9.096;2024-02-15T07:36:22;7.80;59.30
480;DHT22;226;48.606;9.096;2024-02-15T07:38:50;8.00;58.50
480;DHT22;226;48.606;9.096;2024-02-15T07:41:20;8.10;59.30
480;DHT22;226;48.606;9.096;2024-02-15T07:43:49;8.20;58.20
480;DHT22;226;48.606;9.096;2024-02-15T07:46:18;8.40;56.90
480;DHT22;226;48.606;9.096;2024-02-15T07:48:46;8.50;56.10
480;DHT22;226;48.606;9.096;2024-02-15T07:51:18;8.70;55.00
480;DHT22;226;48.606;9.096;2024-02-15T07:53:47;8.90;53.60
480;DHT22;226;48.606;9.096;2024-02-15T07:56:18;9.00;52.30
480;DHT22;226;48.606;9.096;2024-02-15T07:58:48;9.10;51.90
480;DHT22;226;48.606;9.096;2024-02-15T08:01:20;9.50;50.60
480;DHT22;226;48.606;9.096;2024-02-15T08:03:51;9.30;51.30
480;DHT22;226;48.606;9.096;2024-02-15T08:06:23;9.40;51.20
480;DHT22;226;48.606;9.096;2024-02-15T08:08:55;9.70;48.00
480;DHT22;226;48.606;9.096;2024-02-15T08:11:24;9.80;46.80
480;DHT22;226;48.606;9.096;2024-02-15T08:13:53;9.90;45.70
480;DHT22;226;48.606;9.096;2024-02-15T08:16:25;10.00;43.40
480;DHT22;226;48.606;9.096;2024-02-15T08:18:54;10.20;65.60
480;DHT22;226;48.606;9.096;2024-02-15T08:21:31;10.40;74.00
480;DHT22;226;48.606;9.096;2024-02-15T08:24:00;10.50;69.40
480;DHT22;226;48.606;9.096;2024-02-15T08:26:33;10.80;67.60
480;DHT22;226;48.606;9.096;2024-02-15T08:29:05;10.80;64.90
480;DHT22;226;48.606;9.096;2024-02-15T08:31:33;11.00;60.80
480;DHT22;226;48.606;9.096;2024-02-15T08:34:02;11.00;59.30
480;DHT22;226;48.606;9.096;2024-02-15T08:36:34;11.20;56.50
480;DHT22;226;48.606;9.096;2024-02-15T08:39:02;11.30;54.70
480;DHT22;226;48.606;9.096;2024-02-15T08:41:32;11.30;54.50
480;DHT22;226;48.606;9.096;2024-02-15T08:44:01;11.50;50.40
480;DHT22;226;48.606;9.096;2024-02-15T08:46:35;11.50;50.20
480;DHT22;226;48.606;9.096;2024-02-15T08:49:03;11.40;49.30
480;DHT22;226;48.606;9.096;2024-02-15T08:51:31;11.40;50.60
480;DHT22;226;48.606;9.096;2024-02-15T08:54:01;11.40;50.30
480;DHT22;226;48.606;9.096;2024-02-15T08:56:30;11.50;50.30
480;DHT22;226;48.606;9.096;2024-02-15T08:59:00;11.40;50.00
480;DHT22;226;48.606;9.096;2024-02-15T09:01:30;11.50;48.40
480;DHT22;226;48.606;9.096;2024-02-15T09:04:00;11.60;47.80
480;DHT22;226;48.606;9.096;2024-02-15T09:06:29;11.70;46.40
480;DHT22;226;48.606;9.096;2024-02-15T09:08:57;11.60;45.30
480;DHT22;226;48.606;9.096;2024-02-15T09:11:29;11.60;46.00
480;DHT22;226;48.606;9.096;2024-02-15T09:13:57;11.70;46.50
480;DHT22;226;48.606;9.096;2024-02-15T09:16:26;11.60;46.70
480;DHT22;226;48.606;9.096;2024-02-15T09:18:54;11.60;47.00
480;DHT22;226;48.606;9.096;2024-02-15T09:21:22;11.60;47.00
480;DHT22;226;48.606;9.096;2024-02-15T09:23:52;11.70;46.50
480;DHT22;226;48.606;9.096;2024-02-15T09:26:21;11.70;44.80
480;DHT22;226;48.606;9.096;2024-02-15T09:28:51;11.80;45.50
480;DHT22;226;48.606;9.096;2024-02-15T09:31:20;11.90;45.60
480;DHT22;226;48.606;9.096;2024-02-15T09:33:48;11.90;46.40
480;DHT22;226;48.606;9.096;2024-02-15T09:36:17;12.10;45.10
480;DHT22;226;48.606;9.096;2024-02-15T09:38:45;12.10;44.30
480;DHT22;226;48.606;9.096;2024-02-15T09:41:15;12.20;44.40
480;DHT22;226;48.606;9.096;2024-02-15T09:43:43;12.20;43.80
480;DHT22;226;48.606;9.096;2024-02-15T09:46:14;12.30;43.70
480;DHT22;226;48.606;9.096;2024-02-15T09:48:49;12.20;43.00
480;DHT22;226;48.606;9.096;2024-02-15T09:51:18;12.20;43.10
480;DHT22;226;48.606;9.096;2024-02-15T09:53:48;12.10;42.00
480;DHT22;226;48.606;9.096;2024-02-15T09:56:17;12.10;41.50
480;DHT22;226;48.606;9.096;2024-02-15T09:58:49;12.30;40.70
480;DHT22;226;48.606;9.096;2024-02-15T10:12:13;12.80;38.00
480;DHT22;226;48.606;9.096;2024-02-15T10:16:23;12.70;36.70
480;DHT22;226;48.606;9.096;2024-02-15T10:23:33;13.20;35.60
480;DHT22;226;48.606;9.096;2024-02-15T10:26:19;13.30;35.70
480;DHT22;226;48.606;9.096;2024-02-15T10:29:06;13.30;36.20
480;DHT22;226;48.606;9.096;2024-02-15T10:31:37;13.30;34.90
480;DHT22;226;48.606;9.096;2024-02-15T10:34:34;13.40;34.80
480;DHT22;226;48.606;9.096;2024-02-15T10:37:16;13.30;35.60
480;DHT22;226;48.606;9.096;2024-02-15T10:40:23;13.40;35.50
480;DHT22;226;48.606;9.096;2024-02-15T10:43:31;13.50;35.30
480;DHT22;226;48.606;9.096;2024-02-15T10:46:54;13.70;30.80
480;DHT22;226;48.606;9.096;2024-02-15T10:50:20;13.60;30.50
480;DHT22;226;48.606;9.096;2024-02-15T10:53:23;13.80;29.80
480;DHT22;226;48.606;9.096;2024-02-15T10:56:27;13.80;31.00
480;DHT22;226;48.606;9.096;2024-02-15T10:59:18;13.90;28.60
480;DHT22;226;48.606;9.096;2024-02-15T11:02:37;13.80;28.50
480;DHT22;226;48.606;9.096;2024-02-15T11:09:06;14.10;24.20
480;DHT22;226;48.606;9.096;2024-02-15T11:12:02;14.20;23.40
480;DHT22;226;48.606;9.096;2024-02-15T11:22:57;14.90;17.70
480;DHT22;226;48.606;9.096;2024-02-15T11:25:31;14.60;16.90
480;DHT22;226;48.606;9.096;2024-02-15T11:28:34;14.60;21.40
480;DHT22;226;48.606;9.096;2024-02-15T11:31:03;14.90;19.50
480;DHT22;226;48.606;9.096;2024-02-15T11:38:35;14.90;18.90
480;DHT22;226;48.606;9.096;2024-02-15T11:41:04;15.10;17.00
480;DHT22;226;48.606;9.096;2024-02-15T11:43:52;15.10;16.90
480;DHT22;226;48.606;9.096;2024-02-15T11:46:26;16.10;19.10
480;DHT22;226;48.606;9.096;2024-02-15T11:48:58;15.30;17.50
480;DHT22;226;48.606;9.096;2024-02-15T11:51:29;15.40;18.40
480;DHT22;226;48.606;9.096;2024-02-15T11:54:03;15.50;18.20
480;DHT22;226;48.606;9.096;2024-02-15T11:56:54;15.40;18.90
480;DHT22;226;48.606;9.096;2024-02-15T11:59:41;15.80;20.50
480;DHT22;226;48.606;9.096;2024-02-15T12:02:43;15.70;19.90
480;DHT22;226;48.606;9.096;2024-02-15T12:05:40;15.80;22.40
480;DHT22;226;48.606;9.096;2024-02-15T12:08:26;16.60;20.70
480;DHT22;226;48.606;9.096;2024-02-15T12:11:15;15.80;18.50
480;DHT22;226;48.606;9.096;2024-02-15T12:14:00;15.90;19.20
480;DHT22;226;48.606;9.096;2024-02-15T12:16:46;16.20;18.40
480;DHT22;226;48.606;9.096;2024-02-15T12:19:31;16.00;17.60
480;DHT22;226;48.606;9.096;2024-02-15T12:22:00;16.10;17.30
480;DHT22;226;48.606;9.096;2024-02-15T12:24:31;16.10;17.50
480;DHT22;226;48.606;9.096;2024-02-15T12:27:01;16.20;17.10
480;DHT22;226;48.606;9.096;2024-02-15T12:31:59;16.40;16.60
480;DHT22;226;48.606;9.096;2024-02-15T12:34:27;16.50;16.40
480;DHT22;226;48.606;9.096;2024-02-15T12:37:05;16.70;16.00
480;DHT22;226;48.606;9.096;2024-02-15T12:39:36;16.80;14.40
480;DHT22;226;48.606;9.096;2024-02-15T12:42:08;16.90;13.30
480;DHT22;226;48.606;9.096;2024-02-15T12:44:37;16.90;12.80
480;DHT22;226;48.606;9.096;2024-02-15T12:47:19;17.00;13.90
480;DHT22;226;48.606;9.096;2024-02-15T12:49:49;17.20;13.90
480;DHT22;226;48.606;9.096;2024-02-15T12:52:38;17.20;14.30
480;DHT22;226;48.606;9.096;2024-02-15T12:55:11;17.30;14.70
480;DHT22;226;48.606;9.096;2024-02-15T12:57:42;17.30;14.40
480;DHT22;226;48.606;9.096;2024-02-15T13:00:13;17.20;13.30
480;DHT22;226;48.606;9.096;2024-02-15T13:02:46;17.00;13.10
480;DHT22;226;48.606;9.096;2024-02-15T13:05:17;16.90;12.70
480;DHT22;226;48.606;9.096;2024-02-15T13:07:46;17.00;12.20
480;DHT22;226;48.606;9.096;2024-02-15T13:10:15;17.10;12.30
480;DHT22;226;48.606;9.096;2024-02-15T13:12:45;17.30;11.40
480;DHT22;226;48.606;9.096;2024-02-15T13:15:15;17.40;10.10
480;DHT22;226;48.606;9.096;2024-02-15T13:17:45;17.60;11.10
480;DHT22;226;48.606;9.096;2024-02-15T13:20:16;17.40;9.40
480;DHT22;226;48.606;9.096;2024-02-15T13:22:47;17.30;9.30
480;DHT22;226;48.606;9.096;2024-02-15T13:25:16;17.30;9.10
480;DHT22;226;48.606;9.096;2024-02-15T13:27:49;17.20;9.10
480;DHT22;226;48.606;9.096;2024-02-15T13:30:18;17.20;8.70
480;DHT22;226;48.606;9.096;2024-02-15T13:32:49;17.30;8.90
480;DHT22;226;48.606;9.096;2024-02-15T13:35:18;17.30;8.20
480;DHT22;226;48.606;9.096;2024-02-15T13:37:47;17.40;8.40
480;DHT22;226;48.606;9.096;2024-02-15T13:40:26;17.50;8.50
480;DHT22;226;48.606;9.096;2024-02-15T13:42:57;17.60;10.50
480;DHT22;226;48.606;9.096;2024-02-15T13:45:29;17.90;8.60
480;DHT22;226;48.606;9.096;2024-02-15T13:48:00;17.80;7.60
480;DHT22;226;48.606;9.096;2024-02-15T13:50:30;18.10;8.60
480;DHT22;226;48.606;9.096;2024-02-15T13:53:00;18.20;8.80
480;DHT22;226;48.606;9.096;2024-02-15T13:55:28;18.10;8.70
480;DHT22;226;48.606;9.096;2024-02-15T13:57:59;18.00;9.80
480;DHT22;226;48.606;9.096;2024-02-15T14:00:27;18.00;11.70
480;DHT22;226;48.606;9.096;2024-02-15T14:03:01;17.80;9.20
480;DHT22;226;48.606;9.096;2024-02-15T14:05:32;17.60;9.20
480;DHT22;226;48.606;9.096;2024-02-15T14:08:01;17.40;9.40
480;DHT22;226;48.606;9.096;2024-02-15T14:10:30;17.40;10.70
480;DHT22;226;48.606;9.096;2024-02-15T14:13:03;17.40;9.60
480;DHT22;226;48.606;9.096;2024-02-15T14:15:32;15.20;8.70
480;DHT22;226;48.606;9.096;2024-02-15T14:18:04;17.50;10.80
480;DHT22;226;48.606;9.096;2024-02-15T14:20:33;17.70;9.80
480;DHT22;226;48.606;9.096;2024-02-15T14:23:02;17.80;10.40
480;DHT22;226;48.606;9.096;2024-02-15T14:25:33;17.90;12.40
480;DHT22;226;48.606;9.096;2024-02-15T14:28:04;18.00;10.10
480;DHT22;226;48.606;9.096;2024-02-15T14:30:34;18.00;10.20
480;DHT22;226;48.606;9.096;2024-02-15T14:33:20;17.80;9.80
480;DHT22;226;48.606;9.096;2024-02-15T14:35:58;18.00;12.40
480;DHT22;226;48.606;9.096;2024-02-15T14:38:28;17.70;10.70
480;DHT22;226;48.606;9.096;2024-02-15T14:40:56;17.90;12.50
480;DHT22;226;48.606;9.096;2024-02-15T14:43:28;20.70;12.00
480;DHT22;226;48.606;9.096;2024-02-15T14:45:57;18.00;8.80
480;DHT22;226;48.606;9.096;2024-02-15T14:48:26;18.30;11.30
480;DHT22;226;48.606;9.096;2024-02-15T14:50:54;19.00;8.80
480;DHT22;226;48.606;9.096;2024-02-15T14:53:24;18.40;7.90
480;DHT22;226;48.606;9.096;2024-02-15T14:55:54;18.50;8.80
480;DHT22;226;48.606;9.096;2024-02-15T14:58:23;18.70;8.30
480;DHT22;226;48.606;9.096;2024-02-15T15:00:53;18.70;15.00
480;DHT22;226;48.606;9.096;2024-02-15T15:03:30;18.90;23.80
480;DHT22;226;48.606;9.096;2024-02-15T15:06:00;19.00;24.80
480;DHT22;226;48.606;9.096;2024-02-15T15:08:46;19.10;24.60
480;DHT22;226;48.606;9.096;2024-02-15T15:11:32;19.10;22.30
480;DHT22;226;48.606;9.096;2024-02-15T15:14:22;19.00;21.80
480;DHT22;226;48.606;9.096;2024-02-15T15:16:55;18.90;21.50
480;DHT22;226;48.606;9.096;2024-02-15T15:19:23;18.80;17.10
480;DHT22;226;48.606;9.096;2024-02-15T15:21:52;18.60;7.20
480;DHT22;226;48.606;9.096;2024-02-15T15:24:20;18.50;9.50
480;DHT22;226;48.606;9.096;2024-02-15T15:26:49;18.30;16.80
480;DHT22;226;48.606;9.096;2024-02-15T15:29:17;18.20;16.60
480;DHT22;226;48.606;9.096;2024-02-15T15:31:45;18.10;16.20
480;DHT22;226;48.606;9.096;2024-02-15T15:34:15;18.00;16.60
480;DHT22;226;48.606;9.096;2024-02-15T15:36:43;17.80;16.80
480;DHT22;226;48.606;9.096;2024-02-15T15:39:14;17.60;16.90
480;DHT22;226;48.606;9.096;2024-02-15T15:41:44;17.50;16.50
480;DHT22;226;48.606;9.096;2024-02-15T15:44:13;17.40;16.10
480;DHT22;226;48.606;9.096;2024-02-15T15:50:42;17.20;16.60
480;DHT22;226;48.606;9.096;2024-02-15T15:53:19;17.00;16.80
480;DHT22;226;48.606;9.096;2024-02-15T16:02:28;16.70;18.10
480;DHT22;226;48.606;9.096;2024-02-15T16:08:02;16.30;17.10
480;DHT22;226;48.606;9.096;2024-02-15T16:13:58;16.00;20.10
480;DHT22;226;48.606;9.096;2024-02-15T16:16:49;15.70;25.80
480;DHT22;226;48.606;9.096;2024-02-15T16:21:53;15.00;28.10
480;DHT22;226;48.606;9.096;2024-02-15T16:24:22;14.80;26.60
480;DHT22;226;48.606;9.096;2024-02-15T16:26:57;14.80;26.00
480;DHT22;226;48.606;9.096;2024-02-15T16:29:31;14.60;25.90
480;DHT22;226;48.606;9.096;2024-02-15T16:34:28;14.20;26.10
480;DHT22;226;48.606;9.096;2024-02-15T16:36:57;14.10;29.20
480;DHT22;226;48.606;9.096;2024-02-15T16:39:26;13.90;29.30
480;DHT22;226;48.606;9.096;2024-02-15T16:44:24;13.70;28.40
480;DHT22;226;48.606;9.096;2024-02-15T16:46:53;13.70;28.50
480;DHT22;226;48.606;9.096;2024-02-15T16:51:50;13.30;35.90
480;DHT22;226;48.606;9.096;2024-02-15T16:54:18;13.10;33.00
480;DHT22;226;48.606;9.096;2024-02-15T16:56:48;13.00;35.20
480;DHT22;226;48.606;9.096;2024-02-15T16:59:33;13.00;34.70
480;DHT22;226;48.606;9.096;2024-02-15T17:02:02;12.90;36.40
480;DHT22;226;48.606;9.096;2024-02-15T17:04:31;12.90;35.40
480;DHT22;226;48.606;9.096;2024-02-15T17:06:59;12.50;36.10
480;DHT22;226;48.606;9.096;2024-02-15T17:09:27;12.80;37.00
480;DHT22;226;48.606;9.096;2024-02-15T17:11:57;12.70;39.80
480;DHT22;226;48.606;9.096;2024-02-15T17:14:25;12.50;37.80
480;DHT22;226;48.606;9.096;2024-02-15T17:16:54;12.40;41.80
480;DHT22;226;48.606;9.096;2024-02-15T17:19:22;12.30;41.50
480;DHT22;226;48.606;9.096;2024-02-15T17:21:51;12.20;39.60
480;DHT22;226;48.606;9.096;2024-02-15T17:24:19;12.20;37.90
480;DHT22;226;48.606;9.096;2024-02-15T17:26:48;12.00;38.70
480;DHT22;226;48.606;9.096;2024-02-15T17:29:18;12.20;37.70
480;DHT22;226;48.606;9.096;2024-02-15T17:31:49;12.40;41.60
480;DHT22;226;48.606;9.096;2024-02-15T17:34:17;12.20;42.20
480;DHT22;226;48.606;9.096;2024-02-15T17:41:47;12.20;38.80
480;DHT22;226;48.606;9.096;2024-02-15T17:44:17;12.20;38.60
480;DHT22;226;48.606;9.096;2024-02-15T17:46:46;12.20;39.30
480;DHT22;226;48.606;9.096;2024-02-15T17:49:14;12.20;37.60
480;DHT22;226;48.606;9.096;2024-02-15T17:51:42;12.20;38.00
480;DHT22;226;48.606;9.096;2024-02-15T17:54:13;12.10;42.70
480;DHT22;226;48.606;9.096;2024-02-15T17:56:41;12.10;38.20
480;DHT22;226;48.606;9.096;2024-02-15T17:59:10;12.00;39.90
480;DHT22;226;48.606;9.096;2024-02-15T18:01:40;11.90;40.50
480;DHT22;226;48.606;9.096;2024-02-15T18:04:08;11.80;44.60
480;DHT22;226;48.606;9.096;2024-02-15T18:06:39;11.80;40.50
480;DHT22;226;48.606;9.096;2024-02-15T18:09:08;11.80;41.40
480;DHT22;226;48.606;9.096;2024-02-15T18:11:36;11.80;40.30
480;DHT22;226;48.606;9.096;2024-02-15T18:14:04;11.80;43.60
480;DHT22;226;48.606;9.096;2024-02-15T18:16:33;11.80;39.90
480;DHT22;226;48.606;9.096;2024-02-15T18:19:04;11.70;39.60
480;DHT22;226;48.606;9.096;2024-02-15T18:21:32;11.60;39.50
480;DHT22;226;48.606;9.096;2024-02-15T18:24:04;11.20;40.20